createdAt,value
2023-04-29T00:00:36.573Z,11.49
2023-04-29T00:03:41.070Z,11.47
2023-04-29T00:06:44.953Z,11.48
2023-04-29T00:09:47.911Z,11.52
2023-04-29T00:12:52.229Z,11.53
2023-04-29T00:15:55.517Z,11.57
2023-04-29T00:18:59.697Z,11.55
2023-04-29T00:22:04.906Z,11.55
2023-04-29T00:25:08.909Z,11.51
2023-04-29T00:28:13.788Z,11.52
2023-04-29T00:31:16.539Z,11.51
2023-04-29T00:34:20.203Z,11.51
2023-04-29T00:37:22.740Z,11.51
2023-04-29T00:40:28.370Z,11.50
2023-04-29T00:43:31.111Z,11.50
2023-04-29T00:46:36.733Z,11.50
2023-04-29T00:49:40.433Z,11.51
2023-04-29T00:52:45.006Z,11.50
2023-04-29T00:55:59.770Z,11.51
2023-04-29T00:59:04.802Z,11.50
2023-04-29T01:02:07.589Z,11.47
2023-04-29T01:05:10.814Z,11.49
2023-04-29T01:08:22.600Z,11.51
2023-04-29T01:11:34.885Z,11.45
2023-04-29T01:14:39.493Z,11.44
2023-04-29T01:18:10.599Z,11.43
2023-04-29T01:21:13.377Z,11.41
2023-04-29T01:24:17.188Z,11.41
2023-04-29T01:27:48.380Z,11.41
2023-04-29T01:31:09.683Z,11.43
2023-04-29T01:34:34.947Z,11.41
2023-04-29T01:37:48.779Z,11.40
2023-04-29T01:41:13.132Z,11.35
2023-04-29T01:44:24.410Z,11.35
2023-04-29T01:47:30.105Z,11.35
2023-04-29T01:50:33.260Z,11.33
2023-04-29T01:53:37.494Z,11.31
2023-04-29T01:56:40.998Z,11.28
2023-04-29T01:59:43.933Z,11.29
2023-04-29T02:02:47.492Z,11.30
2023-04-29T02:05:52.902Z,11.29
2023-04-29T02:08:55.575Z,11.27
2023-04-29T02:11:58.494Z,11.26
2023-04-29T02:15:01.434Z,11.26
2023-04-29T02:18:05.097Z,11.22
2023-04-29T02:21:08.312Z,11.24
2023-04-29T02:24:11.865Z,11.24
2023-04-29T02:27:14.767Z,11.20
2023-04-29T02:30:18.219Z,11.18
2023-04-29T02:33:22.020Z,11.17
2023-04-29T02:36:25.108Z,11.16
2023-04-29T02:39:28.924Z,11.16
2023-04-29T02:42:32.101Z,11.16
2023-04-29T02:45:37.188Z,11.13
2023-04-29T02:48:40.312Z,11.12
2023-04-29T02:51:42.817Z,11.11
2023-04-29T02:54:45.518Z,11.07
2023-04-29T02:57:58.827Z,11.05
2023-04-29T03:01:02.693Z,11.01
2023-04-29T03:04:06.819Z,10.96
2023-04-29T03:07:10.012Z,10.95
2023-04-29T03:10:12.749Z,10.92
2023-04-29T03:13:15.663Z,10.88
2023-04-29T03:16:21.861Z,10.87
2023-04-29T03:19:24.988Z,10.85
2023-04-29T03:22:28.017Z,10.85
2023-04-29T03:25:31.576Z,10.79
2023-04-29T03:28:34.648Z,10.76
2023-04-29T03:31:44.876Z,10.80
2023-04-29T03:34:49.549Z,10.79
2023-04-29T03:37:53.601Z,10.79
2023-04-29T03:40:57.880Z,10.82
2023-04-29T03:44:01.087Z,10.84
2023-04-29T03:47:08.784Z,10.88
2023-04-29T03:50:12.031Z,10.91
2023-04-29T03:53:15.742Z,10.92
2023-04-29T03:56:21.842Z,10.91
2023-04-29T03:59:24.731Z,10.88
2023-04-29T04:02:29.771Z,10.89
2023-04-29T04:05:32.820Z,10.87
2023-04-29T04:08:36.063Z,10.87
2023-04-29T04:11:39.097Z,10.87
2023-04-29T04:14:42.384Z,10.86
2023-04-29T04:17:45.787Z,10.87
2023-04-29T04:20:50.461Z,10.88
2023-04-29T04:23:54.309Z,10.90
2023-04-29T04:26:57.454Z,10.91
2023-04-29T04:30:01.564Z,10.90
2023-04-29T04:33:05.923Z,10.91
2023-04-29T04:36:13.413Z,10.92
2023-04-29T04:39:17.827Z,10.95
2023-04-29T04:42:24.067Z,10.93
2023-04-29T04:45:30.241Z,10.91
2023-04-29T04:48:34.042Z,10.91
2023-04-29T04:51:37.821Z,10.91
2023-04-29T04:54:41.103Z,10.93
2023-04-29T04:57:45.685Z,10.94
2023-04-29T05:00:50.039Z,10.95
2023-04-29T05:03:54.170Z,10.91
2023-04-29T05:07:01.272Z,10.92
2023-04-29T05:10:09.168Z,10.87
2023-04-29T05:13:16.179Z,10.97
2023-04-29T05:16:28.296Z,10.97
2023-04-29T05:19:32.131Z,10.95
2023-04-29T05:22:36.494Z,10.94
2023-04-29T05:25:40.139Z,10.95
2023-04-29T05:28:43.429Z,10.96
2023-04-29T05:31:48.711Z,10.89
2023-04-29T05:34:54.084Z,10.92
2023-04-29T05:38:01.303Z,10.91
2023-04-29T05:41:14.388Z,10.97
2023-04-29T05:44:27.063Z,11.07
2023-04-29T05:47:34.370Z,11.17
2023-04-29T05:50:39.062Z,11.26
2023-04-29T05:53:46.896Z,11.33
2023-04-29T05:56:50.005Z,11.54
2023-04-29T06:00:04.908Z,11.53
2023-04-29T06:03:19.009Z,11.61
2023-04-29T06:06:25.975Z,11.66
2023-04-29T06:09:30.379Z,11.76
2023-04-29T06:12:34.950Z,11.83
2023-04-29T06:15:42.951Z,11.81
2023-04-29T06:18:46.912Z,11.92
2023-04-29T06:21:51.564Z,12.10
2023-04-29T06:25:02.033Z,12.07
2023-04-29T06:28:08.916Z,12.05
2023-04-29T06:31:19.087Z,12.20
2023-04-29T06:34:25.712Z,12.21
2023-04-29T06:37:38.169Z,12.30
2023-04-29T06:40:41.933Z,12.32
2023-04-29T06:43:47.364Z,12.46
2023-04-29T06:46:53.932Z,12.43
2023-04-29T06:49:58.452Z,12.41
2023-04-29T06:53:04.470Z,12.36
2023-04-29T06:56:11.311Z,12.53
2023-04-29T06:59:29.809Z,12.61
2023-04-29T07:02:35.072Z,12.79
2023-04-29T07:05:40.963Z,12.85
2023-04-29T07:08:48.214Z,13.02
2023-04-29T07:11:58.322Z,13.08
2023-04-29T07:15:08.645Z,13.27
2023-04-29T07:18:12.392Z,13.27
2023-04-29T07:21:17.846Z,13.29
2023-04-29T07:24:28.132Z,13.30
2023-04-29T07:27:35.577Z,13.39
2023-04-29T07:30:38.797Z,13.55
2023-04-29T07:33:49.743Z,13.58
2023-04-29T07:36:54.722Z,13.35
2023-04-29T07:40:02.904Z,13.36
2023-04-29T07:43:07.822Z,13.57
2023-04-29T07:46:12.901Z,13.76
2023-04-29T07:49:20.997Z,13.68
2023-04-29T07:52:25.595Z,13.82
2023-04-29T07:55:31.999Z,13.89
2023-04-29T07:58:38.377Z,14.03
2023-04-29T08:01:42.857Z,14.47
2023-04-29T08:04:52.546Z,15.30
2023-04-29T08:07:59.531Z,15.86
2023-04-29T08:11:09.133Z,16.45
2023-04-29T08:14:20.781Z,17.13
2023-04-29T08:17:32.308Z,16.26
2023-04-29T08:20:44.828Z,15.69
2023-04-29T08:23:48.160Z,15.75
2023-04-29T08:26:58.105Z,15.46
2023-04-29T08:30:03.289Z,15.47
2023-04-29T08:33:09.012Z,15.38
2023-04-29T08:36:12.969Z,15.38
2023-04-29T08:39:17.852Z,15.50
2023-04-29T08:42:33.979Z,15.49
2023-04-29T08:45:38.227Z,15.83
2023-04-29T08:48:45.403Z,15.66
2023-04-29T08:51:54.922Z,15.97
2023-04-29T08:55:05.779Z,15.87
2023-04-29T08:58:09.673Z,16.30
2023-04-29T09:01:16.918Z,16.46
2023-04-29T09:04:49.152Z,16.70
2023-04-29T09:07:56.912Z,16.66
2023-04-29T09:11:01.971Z,16.22
2023-04-29T09:14:08.670Z,16.31
2023-04-29T09:17:13.858Z,16.06
2023-04-29T09:20:22.273Z,16.20
2023-04-29T09:23:39.881Z,15.96
2023-04-29T09:26:43.990Z,16.18
2023-04-29T09:30:03.327Z,16.78
2023-04-29T09:33:09.118Z,17.48
2023-04-29T09:36:18.929Z,17.58
2023-04-29T09:39:25.023Z,17.39
2023-04-29T09:42:28.356Z,18.21
2023-04-29T09:45:43.544Z,17.50
2023-04-29T09:48:47.518Z,17.82
2023-04-29T09:52:01.988Z,17.60
2023-04-29T09:55:09.219Z,17.94
2023-04-29T09:58:37.535Z,17.96
2023-04-29T10:01:50.734Z,19.21
2023-04-29T10:04:58.395Z,18.73
2023-04-29T10:08:03.109Z,18.75
2023-04-29T10:11:10.870Z,18.92
2023-04-29T10:14:18.020Z,18.33
2023-04-29T10:17:33.314Z,17.51
2023-04-29T10:20:41.110Z,17.41
2023-04-29T10:23:45.982Z,17.50
2023-04-29T10:26:59.477Z,17.52
2023-04-29T10:30:17.973Z,17.41
2023-04-29T10:33:23.254Z,17.69
2023-04-29T10:36:30.239Z,18.12
2023-04-29T10:39:51.924Z,18.41
2023-04-29T10:43:04.868Z,17.89
2023-04-29T10:46:21.314Z,17.46
2023-04-29T10:49:26.519Z,17.56
2023-04-29T10:52:31.144Z,17.85
2023-04-29T10:55:37.901Z,17.87
2023-04-29T10:58:50.931Z,18.38
2023-04-29T11:01:54.754Z,18.77
2023-04-29T11:05:11.509Z,18.30
2023-04-29T11:08:24.305Z,18.47
2023-04-29T11:11:43.884Z,18.94
2023-04-29T11:15:03.513Z,19.22
2023-04-29T11:18:14.927Z,18.44
2023-04-29T11:21:24.087Z,18.54
2023-04-29T11:24:29.162Z,19.61
2023-04-29T11:27:43.301Z,20.18
2023-04-29T11:30:57.025Z,19.71
2023-04-29T11:34:05.878Z,19.79
2023-04-29T11:37:20.910Z,20.31
2023-04-29T11:40:28.482Z,20.87
2023-04-29T11:43:43.686Z,21.37
2023-04-29T11:46:46.642Z,21.45
2023-04-29T11:49:51.083Z,21.87
2023-04-29T11:53:04.806Z,23.17
2023-04-29T11:56:11.648Z,22.12
2023-04-29T11:59:19.040Z,21.57
2023-04-29T12:02:29.200Z,20.80
2023-04-29T12:05:32.934Z,20.78
2023-04-29T12:08:37.299Z,21.47
2023-04-29T12:11:41.875Z,21.38
2023-04-29T12:14:53.954Z,20.59
2023-04-29T12:18:02.085Z,20.07
2023-04-29T12:21:07.681Z,20.23
2023-04-29T12:24:13.400Z,20.32
2023-04-29T12:27:24.895Z,19.67
2023-04-29T12:30:29.526Z,19.63
2023-04-29T12:33:38.348Z,19.38
2023-04-29T12:36:50.817Z,19.74
2023-04-29T12:40:07.824Z,20.20
2023-04-29T12:43:17.896Z,20.49
2023-04-29T12:46:21.330Z,20.16
2023-04-29T12:49:25.641Z,20.68
2023-04-29T12:52:30.872Z,21.52
2023-04-29T12:55:36.230Z,21.35
2023-04-29T12:58:39.176Z,21.27
2023-04-29T13:01:46.122Z,20.75
2023-04-29T13:04:50.160Z,20.76
2023-04-29T13:08:08.812Z,20.72
2023-04-29T13:11:13.904Z,20.79
2023-04-29T13:14:18.940Z,20.50
2023-04-29T13:17:24.919Z,20.60
2023-04-29T13:20:28.594Z,20.18
2023-04-29T13:23:35.130Z,19.89
2023-04-29T13:26:39.551Z,20.21
2023-04-29T13:29:42.749Z,20.20
2023-04-29T13:32:53.324Z,20.36
2023-04-29T13:36:01.069Z,20.25
2023-04-29T13:39:08.638Z,20.29
2023-04-29T13:42:15.383Z,20.76
2023-04-29T13:45:29.096Z,20.47
2023-04-29T13:49:03.401Z,21.06
2023-04-29T13:52:58.433Z,21.19
2023-04-29T13:56:23.493Z,21.40
2023-04-29T14:02:25.067Z,20.17
2023-04-29T14:05:31.068Z,20.06
2023-04-29T14:08:35.434Z,20.40
2023-04-29T14:11:43.371Z,20.43
2023-04-29T14:14:47.033Z,19.67
2023-04-29T14:17:59.986Z,19.62
2023-04-29T14:21:06.568Z,19.66
2023-04-29T14:24:17.789Z,19.64
2023-04-29T14:27:22.704Z,19.45
2023-04-29T14:30:27.137Z,19.38
2023-04-29T14:33:31.902Z,19.42
2023-04-29T14:36:36.165Z,19.81
2023-04-29T14:39:40.922Z,20.14
2023-04-29T14:42:44.606Z,19.85
2023-04-29T14:45:51.232Z,19.53
2023-04-29T14:48:58.613Z,19.69
2023-04-29T14:52:10.030Z,19.55
2023-04-29T14:55:19.525Z,19.71
2023-04-29T14:58:22.714Z,19.69
2023-04-29T15:01:30.543Z,19.56
2023-04-29T15:04:35.551Z,19.77
2023-04-29T15:07:38.901Z,19.86
2023-04-29T15:10:47.985Z,19.72
2023-04-29T15:13:52.195Z,19.79
2023-04-29T15:17:03.819Z,19.61
2023-04-29T15:20:09.741Z,19.39
2023-04-29T15:23:16.899Z,19.33
2023-04-29T15:26:21.971Z,19.28
2023-04-29T15:29:34.547Z,19.19
2023-04-29T15:32:39.832Z,19.20
2023-04-29T15:35:44.465Z,19.20
2023-04-29T15:38:54.522Z,19.16
2023-04-29T15:42:00.146Z,19.51
2023-04-29T15:45:11.077Z,19.64
2023-04-29T15:48:14.913Z,19.79
2023-04-29T15:51:22.543Z,19.73
2023-04-29T15:54:37.375Z,19.35
2023-04-29T15:57:44.895Z,19.21
2023-04-29T16:00:49.057Z,19.33
2023-04-29T16:03:58.272Z,19.07
2023-04-29T16:07:09.872Z,19.12
2023-04-29T16:10:14.156Z,18.97
2023-04-29T16:13:18.854Z,18.75
2023-04-29T16:16:26.909Z,18.67
2023-04-29T16:19:30.887Z,18.57
2023-04-29T16:22:38.549Z,18.49
2023-04-29T16:25:42.873Z,18.49
2023-04-29T16:28:59.457Z,18.47
2023-04-29T16:32:05.963Z,18.37
2023-04-29T16:35:10.796Z,18.30
2023-04-29T16:38:13.667Z,18.27
2023-04-29T16:41:18.410Z,18.22
2023-04-29T16:44:23.197Z,18.11
2023-04-29T16:47:31.114Z,18.03
2023-04-29T16:50:52.396Z,17.94
2023-04-29T16:53:58.086Z,17.86
2023-04-29T16:57:01.562Z,17.77
2023-04-29T17:00:16.833Z,17.74
2023-04-29T17:03:21.628Z,17.73
2023-04-29T17:06:33.710Z,17.68
2023-04-29T17:09:37.924Z,17.59
2023-04-29T17:12:42.882Z,17.50
2023-04-29T17:15:46.039Z,17.48
2023-04-29T17:18:57.922Z,17.42
2023-04-29T17:22:05.914Z,17.37
2023-04-29T17:25:14.867Z,17.21
2023-04-29T17:28:20.008Z,17.07
2023-04-29T17:31:45.361Z,17.00
2023-04-29T17:34:51.477Z,16.92
2023-04-29T17:38:02.787Z,16.76
2023-04-29T17:41:07.609Z,16.63
2023-04-29T17:44:20.560Z,16.52
2023-04-29T17:47:30.938Z,16.40
2023-04-29T17:50:43.891Z,16.27
2023-04-29T17:53:49.032Z,16.17
2023-04-29T17:56:58.987Z,16.05
2023-04-29T18:00:11.423Z,16.01
2023-04-29T18:03:15.913Z,15.93
2023-04-29T18:06:26.622Z,15.85
2023-04-29T18:09:38.564Z,15.76
2023-04-29T18:12:42.405Z,15.62
2023-04-29T18:15:47.885Z,15.63
2023-04-29T18:18:56.002Z,15.71
2023-04-29T18:22:04.600Z,15.65
2023-04-29T18:25:09.906Z,15.67
2023-04-29T18:28:24.729Z,15.58
2023-04-29T18:31:34.799Z,15.47
2023-04-29T18:34:44.165Z,15.40
2023-04-29T18:37:55.514Z,15.29
2023-04-29T18:41:08.962Z,15.22
2023-04-29T18:44:13.963Z,15.18
2023-04-29T18:47:24.975Z,15.08
2023-04-29T18:50:30.848Z,15.06
2023-04-29T18:53:42.790Z,15.02
2023-04-29T18:56:48.439Z,14.97
2023-04-29T18:59:53.924Z,14.88
2023-04-29T19:03:12.885Z,14.79
2023-04-29T19:06:23.306Z,14.78
2023-04-29T19:09:32.924Z,14.76
2023-04-29T19:12:43.419Z,14.74
2023-04-29T19:15:50.761Z,14.75
2023-04-29T19:19:01.205Z,14.70
2023-04-29T19:22:08.923Z,14.67
2023-04-29T19:25:13.612Z,14.67
2023-04-29T19:28:20.212Z,14.67
2023-04-29T19:31:31.822Z,14.59
2023-04-29T19:34:36.572Z,14.44
2023-04-29T19:37:40.878Z,14.46
2023-04-29T19:40:50.802Z,14.43
2023-04-29T19:43:58.317Z,14.43
2023-04-29T19:47:08.189Z,14.44
2023-04-29T19:50:16.697Z,14.43
2023-04-29T19:53:20.650Z,14.40
2023-04-29T19:56:24.267Z,14.37
2023-04-29T19:59:32.040Z,14.35
2023-04-29T20:02:45.998Z,14.30
2023-04-29T20:05:59.308Z,14.27
2023-04-29T20:09:04.621Z,14.23
2023-04-29T20:12:12.094Z,14.22
2023-04-29T20:15:27.474Z,14.21
2023-04-29T20:18:32.954Z,14.22
2023-04-29T20:21:39.941Z,14.24
2023-04-29T20:24:46.977Z,14.23
2023-04-29T20:27:59.822Z,14.25
2023-04-29T20:31:09.298Z,14.21
2023-04-29T20:34:17.923Z,14.26
2023-04-29T20:37:21.331Z,14.25
2023-04-29T20:40:26.082Z,14.22
2023-04-29T20:43:30.893Z,14.22
2023-04-29T20:46:35.630Z,14.19
2023-04-29T20:49:39.890Z,14.11
2023-04-29T20:52:51.824Z,14.08
2023-04-29T20:56:06.776Z,14.05
2023-04-29T20:59:10.369Z,14.04
2023-04-29T21:02:13.677Z,14.03
2023-04-29T21:05:17.929Z,13.96
2023-04-29T21:08:22.393Z,13.93
2023-04-29T21:11:25.902Z,13.87
2023-04-29T21:14:42.737Z,13.80
2023-04-29T21:17:46.289Z,13.82
2023-04-29T21:20:52.185Z,13.85
2023-04-29T21:24:00.164Z,13.81
2023-04-29T21:27:05.078Z,13.82
2023-04-29T21:30:08.648Z,13.83
2023-04-29T21:33:13.755Z,13.82
2023-04-29T21:36:17.506Z,13.79
2023-04-29T21:39:22.905Z,13.76
2023-04-29T21:42:26.846Z,13.77
2023-04-29T21:45:34.892Z,13.78
2023-04-29T21:48:39.026Z,13.82
2023-04-29T21:51:42.538Z,13.82
2023-04-29T21:54:45.717Z,13.87
2023-04-29T21:57:55.564Z,13.89
2023-04-29T22:01:03.511Z,13.92
2023-04-29T22:04:07.848Z,13.91
2023-04-29T22:07:10.438Z,13.92
2023-04-29T22:10:13.994Z,13.89
2023-04-29T22:13:17.236Z,13.83
2023-04-29T22:16:20.992Z,13.81
2023-04-29T22:19:23.810Z,13.79
2023-04-29T22:22:27.003Z,13.77
2023-04-29T22:25:30.082Z,13.77
2023-04-29T22:28:33.710Z,13.77
2023-04-29T22:31:36.529Z,13.75
2023-04-29T22:34:40.301Z,13.72
2023-04-29T22:37:43.870Z,13.70
2023-04-29T22:40:57.148Z,13.70
2023-04-29T22:44:00.195Z,13.71
2023-04-29T22:47:06.724Z,13.71
2023-04-29T22:50:10.329Z,13.69
2023-04-29T22:53:14.436Z,13.70
2023-04-29T22:56:17.373Z,13.67
2023-04-29T22:59:21.049Z,13.71
2023-04-29T23:02:29.129Z,13.72
2023-04-29T23:05:32.345Z,13.63
2023-04-29T23:08:36.188Z,13.68
2023-04-29T23:11:39.811Z,13.69
2023-04-29T23:14:43.400Z,13.69
2023-04-29T23:17:46.486Z,13.61
2023-04-29T23:20:57.044Z,13.65
2023-04-29T23:24:00.868Z,13.66
2023-04-29T23:27:04.365Z,13.66
2023-04-29T23:30:09.108Z,13.61
2023-04-29T23:33:12.666Z,13.59
2023-04-29T23:36:15.684Z,13.60
2023-04-29T23:39:18.596Z,13.62
2023-04-29T23:42:22.438Z,13.61
2023-04-29T23:45:25.081Z,13.58
2023-04-29T23:48:28.286Z,13.59
2023-04-29T23:51:32.843Z,13.53
2023-04-29T23:54:36.178Z,13.51
2023-04-29T23:57:39.020Z,13.51
